Greenville, SC

4:39 AM EDT on August 31, 2016 (GMT -0400)
Merrifield Park Subdivision | | Change Station

Elev 1010 ft 34.87 °N, 82.32 °W | Updated 317 days ago

Clear
Clear
72 °F
Feels Like 72 °F
N
4
Wind Variable Wind from NNE
Gusts mph

Today
High -- | Low -- °F
--% Chance of Precip.
Yesterday
High -- | Low -- °F
Precip. -- in
Pressure 30.01 in
Visibility 10.0 miles
Clouds Few 5500 ft
Mostly Cloudy 7000 ft
Dew Point 65 °F
Humidity 79%
Rainfall in
Snow Depth Not available.
7:01 AM 7:56 PM
Waning Crescent, 1% visible
METAR KGMU 310753Z AUTO 05004KT 10SM -RA FEW055 BKN070 25/19 A3005 RMK AO2 RAB53 SLP163 P0000 T02500189
Pressure 30.01 in
Visibility 10.0 miles
Clouds Few 5500 ft
Mostly Cloudy 7000 ft
Dew Point 65 °F
Humidity 79%
Rainfall in
Snow Depth Not available.
7:01 AM 7:56 PM
Waning Crescent, 1% visible
METAR KGMU 310753Z AUTO 05004KT 10SM -RA FEW055 BKN070 25/19 A3005 RMK AO2 RAB53 SLP163 P0000 T02500189

10-Day Weather Forecast

Almanac

Astronomy

Aug. 31, 2016 Rise Set
Actual Time
Civil Twilight
Nautical Twilight
Astronomical Twilight
Moon
Length of Visible Light
Length of Day
Tomorrow will be .
, % of the Moon is Illuminated

Today's Extremes

State Highs State Lows

Community

WunderPhotos

Upload Photos

1,936,052 photos uploaded!

WunderBlog® & News

Nearby

Air Quality

  Air Quality AQ Index Pollutant
Not available.

Snow Depth

Station Depth Elevation

Earthquake Activity

City Distance Mag. Time & Date
Minimum magnitude displayed is 2.5.

Coastal Water Temperatures

Place Temperature

Stations

Nearby Weather Stations

Station Location Temp. Windchill Dew Point Humidity Wind Precip. Elev Updated Type
                   

Watches & Warnings

There are currently no watches in effect.